createdAt,value
2018-03-15T00:02:11.788Z,3.93
2018-03-15T00:04:42.004Z,3.80
2018-03-15T00:07:10.950Z,10.80
2018-03-15T00:09:42.651Z,5.03
2018-03-15T00:12:11.489Z,3.83
2018-03-15T00:14:40.838Z,4.30
2018-03-15T00:17:10.029Z,3.90
2018-03-15T00:19:41.056Z,5.47
2018-03-15T00:22:10.314Z,4.87
2018-03-15T00:24:40.209Z,6.60
2018-03-15T00:27:10.310Z,4.10
2018-03-15T00:29:40.158Z,4.20
2018-03-15T00:32:10.988Z,4.10
2018-03-15T00:34:41.403Z,4.30
2018-03-15T00:37:18.106Z,3.90
2018-03-15T00:39:46.528Z,4.77
2018-03-15T00:42:17.457Z,6.00
2018-03-15T00:47:35.315Z,5.90
2018-03-15T00:50:04.127Z,5.07
2018-03-15T00:52:34.337Z,4.20
2018-03-15T00:55:04.132Z,4.43
2018-03-15T00:57:37.629Z,4.87
2018-03-15T01:00:07.855Z,4.33
2018-03-15T01:02:36.004Z,4.43
2018-03-15T01:05:04.979Z,5.30
2018-03-15T01:07:32.886Z,5.00
2018-03-15T01:10:01.841Z,5.07
2018-03-15T01:12:37.246Z,4.60
2018-03-15T01:15:09.307Z,5.17
2018-03-15T01:17:40.359Z,4.90
2018-03-15T01:20:10.448Z,6.97
2018-03-15T01:22:38.753Z,5.40
2018-03-15T01:25:09.428Z,6.37
2018-03-15T01:27:39.726Z,13.60
2018-03-15T01:30:14.038Z,5.23
2018-03-15T01:32:46.688Z,4.80
2018-03-15T01:35:17.289Z,5.07
2018-03-15T01:37:46.747Z,5.60
2018-03-15T01:40:18.542Z,6.77
2018-03-15T01:45:55.577Z,6.10
2018-03-15T01:48:28.180Z,10.53
2018-03-15T01:50:58.868Z,8.37
2018-03-15T01:53:27.910Z,16.40
2018-03-15T01:55:58.483Z,12.43
2018-03-15T01:58:34.783Z,6.20
2018-03-15T02:01:03.088Z,8.40
2018-03-15T02:03:32.014Z,6.03
2018-03-15T02:06:01.247Z,5.90
2018-03-15T02:08:29.806Z,6.07
2018-03-15T02:10:59.038Z,7.03
2018-03-15T02:13:31.708Z,5.73
2018-03-15T02:16:04.314Z,5.80
2018-03-15T02:18:33.962Z,7.73
2018-03-15T02:21:03.598Z,5.97
2018-03-15T02:23:31.774Z,5.83
2018-03-15T02:26:01.933Z,6.47
2018-03-15T02:28:35.781Z,6.43
2018-03-15T02:31:04.568Z,6.07
2018-03-15T02:33:33.001Z,5.73
2018-03-15T02:36:02.108Z,6.70
2018-03-15T02:38:32.819Z,6.73
2018-03-15T02:41:04.156Z,7.77
2018-03-15T02:43:32.643Z,6.30
2018-03-15T02:46:09.469Z,6.20
2018-03-15T02:48:39.541Z,6.13
2018-03-15T02:51:10.655Z,5.90
2018-03-15T02:53:42.790Z,6.00
2018-03-15T02:56:13.500Z,7.13
2018-03-15T02:58:44.763Z,8.30
2018-03-15T03:01:12.487Z,6.17
2018-03-15T03:03:40.647Z,5.33
2018-03-15T03:06:09.384Z,6.00
2018-03-15T03:08:39.952Z,8.03
2018-03-15T03:11:11.519Z,6.43
2018-03-15T03:13:39.609Z,6.43
2018-03-15T03:16:07.672Z,7.37
2018-03-15T03:18:36.873Z,5.90
2018-03-15T03:21:06.094Z,14.43
2018-03-15T03:23:34.332Z,11.63
2018-03-15T03:26:04.889Z,13.73
2018-03-15T03:28:33.254Z,27.17
2018-03-15T03:31:01.192Z,7.23
2018-03-15T03:33:30.531Z,8.27
2018-03-15T03:36:00.370Z,45.17
2018-03-15T03:38:30.511Z,6.30
2018-03-15T03:41:00.436Z,9.83
2018-03-15T03:43:30.413Z,7.17
2018-03-15T03:46:01.398Z,7.50
2018-03-15T03:48:33.669Z,57.40
2018-03-15T03:51:02.862Z,9.83
2018-03-15T03:53:33.222Z,8.40
2018-03-15T03:56:02.301Z,7.47
2018-03-15T03:58:31.729Z,6.73
2018-03-15T04:01:06.106Z,7.37
2018-03-15T04:03:34.562Z,10.83
2018-03-15T04:06:07.629Z,7.97
2018-03-15T04:08:40.563Z,9.60
2018-03-15T04:11:11.025Z,8.73
2018-03-15T04:13:45.145Z,11.07
2018-03-15T04:16:19.082Z,9.03
2018-03-15T04:18:47.302Z,9.17
2018-03-15T04:21:22.336Z,10.23
2018-03-15T04:23:51.804Z,11.73
2018-03-15T04:26:21.619Z,9.10
2018-03-15T04:28:53.785Z,9.67
2018-03-15T04:31:23.301Z,9.73
2018-03-15T04:33:52.475Z,12.93
2018-03-15T04:36:21.768Z,10.70
2018-03-15T04:38:53.605Z,10.77
2018-03-15T04:41:22.280Z,10.97
2018-03-15T04:43:51.495Z,11.20
2018-03-15T04:46:22.758Z,12.90
2018-03-15T04:48:55.029Z,16.10
2018-03-15T04:51:25.134Z,16.13
2018-03-15T04:53:53.405Z,12.90
2018-03-15T04:56:22.530Z,16.83
2018-03-15T04:58:51.493Z,12.17
2018-03-15T05:01:25.180Z,14.80
2018-03-15T05:03:55.554Z,15.63
2018-03-15T05:06:28.260Z,17.17
2018-03-15T05:08:56.601Z,15.73
2018-03-15T05:11:27.654Z,16.87
2018-03-15T05:13:57.939Z,19.00
2018-03-15T05:16:26.845Z,19.20
2018-03-15T05:18:55.578Z,19.60
2018-03-15T05:21:27.874Z,21.63
2018-03-15T05:23:58.378Z,17.07
2018-03-15T05:26:28.948Z,21.43
2018-03-15T05:29:00.788Z,20.17
2018-03-15T05:31:32.068Z,24.07
2018-03-15T05:34:06.107Z,21.00
2018-03-15T05:36:35.494Z,28.77
2018-03-15T05:39:07.979Z,23.10
2018-03-15T05:41:37.606Z,23.67
2018-03-15T05:44:05.839Z,20.33
2018-03-15T05:46:36.223Z,19.03
2018-03-15T05:49:04.924Z,21.63
2018-03-15T05:51:35.868Z,20.37
2018-03-15T05:54:07.227Z,22.10
2018-03-15T05:57:06.179Z,21.77
2018-03-15T05:59:36.335Z,17.37
2018-03-15T06:02:04.555Z,19.30
2018-03-15T06:04:33.429Z,15.90
2018-03-15T06:07:01.943Z,15.40
2018-03-15T06:09:31.451Z,16.13
2018-03-15T06:12:00.377Z,18.70
2018-03-15T06:14:27.584Z,19.47
2018-03-15T06:16:55.444Z,20.80
2018-03-15T06:19:24.183Z,16.67
2018-03-15T06:21:57.864Z,17.73
2018-03-15T06:24:28.852Z,15.53
2018-03-15T06:26:57.261Z,14.57
2018-03-15T06:29:26.525Z,12.87
2018-03-15T06:31:57.879Z,12.97
2018-03-15T06:34:26.411Z,14.30
2018-03-15T06:36:55.051Z,14.73
2018-03-15T06:39:25.817Z,12.77
2018-03-15T06:41:54.905Z,11.20
2018-03-15T06:44:25.585Z,15.50
2018-03-15T06:46:54.173Z,9.97
2018-03-15T06:49:28.578Z,13.60
2018-03-15T06:52:07.365Z,13.40
2018-03-15T06:54:49.813Z,14.73
2018-03-15T06:57:20.654Z,14.63
2018-03-15T06:59:51.351Z,15.17
2018-03-15T07:02:22.443Z,15.50
2018-03-15T07:04:54.684Z,12.87
2018-03-15T07:07:26.066Z,12.50
2018-03-15T07:09:55.298Z,13.83
2018-03-15T07:12:25.261Z,11.87
2018-03-15T07:14:58.988Z,10.83
2018-03-15T07:20:34.447Z,14.00
2018-03-15T07:23:04.517Z,13.80
2018-03-15T07:25:42.320Z,13.97
2018-03-15T07:28:12.055Z,14.37
2018-03-15T07:30:42.443Z,20.97
2018-03-15T07:33:11.640Z,24.60
2018-03-15T07:35:40.128Z,15.13
2018-03-15T07:38:12.434Z,15.17
2018-03-15T07:40:41.674Z,22.90
2018-03-15T07:43:14.260Z,19.13
2018-03-15T07:45:45.801Z,39.17
2018-03-15T07:48:15.771Z,20.10
2018-03-15T07:50:45.990Z,22.03
2018-03-15T07:53:16.405Z,22.23
2018-03-15T07:55:44.767Z,19.00
2018-03-15T07:58:16.198Z,24.90
2018-03-15T08:00:47.731Z,23.20
2018-03-15T08:03:17.464Z,20.97
2018-03-15T08:05:46.325Z,21.70
2018-03-15T08:08:14.365Z,21.70
2018-03-15T08:10:44.295Z,26.80
2018-03-15T08:13:12.332Z,24.97
2018-03-15T08:15:41.297Z,24.80
2018-03-15T08:18:11.515Z,24.30
2018-03-15T08:20:41.759Z,19.47
2018-03-15T08:23:10.902Z,20.17
2018-03-15T08:25:41.205Z,20.10
2018-03-15T08:28:13.181Z,37.30
2018-03-15T08:30:42.143Z,17.97
2018-03-15T08:33:15.103Z,16.20
2018-03-15T08:35:43.988Z,17.87
2018-03-15T08:38:14.460Z,19.53
2018-03-15T08:40:45.501Z,19.03
2018-03-15T08:43:19.009Z,17.30
2018-03-15T08:45:48.556Z,15.83
2018-03-15T08:48:16.279Z,18.80
2018-03-15T08:50:47.380Z,15.70
2018-03-15T08:53:18.013Z,16.27
2018-03-15T08:55:47.619Z,18.47
2018-03-15T08:58:16.392Z,16.90
2018-03-15T09:00:47.563Z,22.03
2018-03-15T09:03:19.383Z,20.13
2018-03-15T09:05:49.147Z,19.13
2018-03-15T09:08:19.556Z,21.90
2018-03-15T09:10:50.379Z,19.33
2018-03-15T09:13:21.357Z,17.60
2018-03-15T09:15:50.894Z,17.90
2018-03-15T09:18:21.651Z,20.70
2018-03-15T09:20:51.252Z,17.40
2018-03-15T09:23:19.523Z,22.40
2018-03-15T09:25:47.513Z,19.63
2018-03-15T09:28:16.387Z,18.77
2018-03-15T09:30:46.289Z,22.00
2018-03-15T09:33:16.281Z,21.07
2018-03-15T09:35:47.314Z,22.83
2018-03-15T09:38:17.094Z,24.37
2018-03-15T09:40:48.252Z,26.40
2018-03-15T09:43:17.202Z,18.57
2018-03-15T09:45:45.729Z,19.77
2018-03-15T09:48:16.008Z,18.47
2018-03-15T09:50:45.959Z,19.93
2018-03-15T09:53:16.883Z,18.40
2018-03-15T09:55:45.589Z,19.17
2018-03-15T09:58:14.754Z,24.60
2018-03-15T10:00:52.848Z,23.17
2018-03-15T10:03:22.022Z,18.50
2018-03-15T10:05:50.361Z,18.30
2018-03-15T10:08:21.000Z,27.83
2018-03-15T10:10:51.737Z,18.13
2018-03-15T10:13:22.304Z,22.53
2018-03-15T10:15:50.532Z,22.43
2018-03-15T10:18:24.731Z,17.47
2018-03-15T10:20:54.674Z,20.47
2018-03-15T10:23:23.904Z,19.03
2018-03-15T10:25:53.133Z,18.00
2018-03-15T10:28:22.922Z,17.07
2018-03-15T10:30:51.463Z,19.73
2018-03-15T10:33:25.663Z,20.20
2018-03-15T10:35:54.993Z,19.90
2018-03-15T10:38:24.344Z,21.90
2018-03-15T10:40:56.515Z,16.37
2018-03-15T10:43:29.782Z,20.60
2018-03-15T10:46:04.742Z,18.07
2018-03-15T10:48:36.644Z,17.97
2018-03-15T10:51:05.726Z,28.53
2018-03-15T10:53:34.387Z,24.53
2018-03-15T10:56:04.538Z,19.87
2018-03-15T10:58:36.040Z,19.43
2018-03-15T11:01:06.210Z,20.70
2018-03-15T11:03:41.481Z,23.67
2018-03-15T11:06:11.593Z,20.00
2018-03-15T11:08:48.207Z,18.83
2018-03-15T11:11:17.105Z,21.63
2018-03-15T11:13:46.333Z,20.43
2018-03-15T11:16:15.072Z,19.47
2018-03-15T11:18:47.384Z,19.57
2018-03-15T11:21:20.266Z,24.60
2018-03-15T11:23:52.133Z,15.93
2018-03-15T11:26:20.734Z,18.97
2018-03-15T11:28:50.511Z,17.87
2018-03-15T11:31:20.288Z,20.80
2018-03-15T11:33:49.173Z,17.03
2018-03-15T11:36:16.653Z,19.53
2018-03-15T11:38:47.004Z,16.50
2018-03-15T11:41:17.956Z,21.97
2018-03-15T11:43:47.473Z,18.27
2018-03-15T11:46:16.479Z,18.70
2018-03-15T11:48:46.780Z,21.07
2018-03-15T11:51:17.440Z,17.53
2018-03-15T11:53:46.258Z,20.00
2018-03-15T11:56:17.792Z,19.90
2018-03-15T11:58:48.666Z,19.90
2018-03-15T12:01:20.809Z,18.53
2018-03-15T12:03:50.181Z,21.13
2018-03-15T12:06:18.278Z,21.33
2018-03-15T12:08:47.759Z,17.03
2018-03-15T12:11:18.602Z,17.70
2018-03-15T12:13:52.081Z,23.57
2018-03-15T12:16:20.994Z,16.87
2018-03-15T12:18:48.988Z,17.07
2018-03-15T12:21:19.512Z,18.37
2018-03-15T12:23:49.010Z,16.33
2018-03-15T12:26:18.388Z,16.30
2018-03-15T12:28:52.042Z,16.20
2018-03-15T12:31:19.718Z,17.63
2018-03-15T12:33:49.039Z,16.70
2018-03-15T12:36:21.978Z,22.67
2018-03-15T12:38:54.201Z,18.90
2018-03-15T12:41:22.805Z,21.43
2018-03-15T12:43:52.586Z,19.60
2018-03-15T12:46:21.200Z,17.37
2018-03-15T12:48:53.462Z,15.60
2018-03-15T12:51:28.441Z,15.30
2018-03-15T12:53:56.987Z,16.27
2018-03-15T12:56:24.161Z,18.07
2018-03-15T12:58:51.517Z,17.73
2018-03-15T13:01:21.733Z,16.87
2018-03-15T13:03:56.036Z,15.93
2018-03-15T13:06:24.059Z,22.60
2018-03-15T13:08:51.855Z,18.87
2018-03-15T13:11:20.428Z,17.87
2018-03-15T13:13:50.103Z,14.63
2018-03-15T13:16:23.376Z,15.73
2018-03-15T13:18:57.976Z,19.20
2018-03-15T13:21:25.927Z,16.00
2018-03-15T13:23:57.972Z,16.80
2018-03-15T13:26:27.135Z,14.00
2018-03-15T13:28:54.868Z,20.17
2018-03-15T13:31:23.891Z,13.90
2018-03-15T13:33:52.970Z,18.07
2018-03-15T13:36:26.260Z,16.27
2018-03-15T13:38:55.435Z,17.87
2018-03-15T13:41:26.099Z,15.77
2018-03-15T13:43:58.462Z,15.10
2018-03-15T13:46:26.325Z,14.87
2018-03-15T13:48:52.795Z,13.00
2018-03-15T13:51:19.277Z,15.97
2018-03-15T13:53:45.820Z,15.43
2018-03-15T13:56:12.237Z,14.43
2018-03-15T13:58:38.684Z,15.37
2018-03-15T14:01:05.056Z,15.50
2018-03-15T14:03:31.518Z,13.63
2018-03-15T14:05:58.005Z,17.03
2018-03-15T14:08:31.449Z,15.40
2018-03-15T14:10:57.891Z,14.53
2018-03-15T14:13:24.369Z,17.07
2018-03-15T14:15:50.871Z,19.00
2018-03-15T14:18:17.414Z,14.67
2018-03-15T14:20:43.855Z,14.13
2018-03-15T14:23:10.444Z,15.83
2018-03-15T14:25:37.706Z,15.83
2018-03-15T14:28:04.178Z,15.90
2018-03-15T14:30:30.681Z,15.03
2018-03-15T14:32:57.818Z,18.10
2018-03-15T14:35:24.398Z,16.00
2018-03-15T14:37:50.832Z,17.57
2018-03-15T14:40:17.259Z,18.13
2018-03-15T14:42:44.447Z,16.30
2018-03-15T14:45:10.840Z,15.80
2018-03-15T14:47:37.414Z,15.27
2018-03-15T14:50:04.005Z,15.10
2018-03-15T14:52:30.364Z,16.13
2018-03-15T14:54:57.052Z,14.13
2018-03-15T14:57:23.479Z,17.50
2018-03-15T14:59:49.997Z,12.70
2018-03-15T15:02:16.548Z,14.23
2018-03-15T15:04:42.939Z,16.13
2018-03-15T15:07:09.442Z,14.40
2018-03-15T15:09:36.723Z,13.13
2018-03-15T15:12:04.783Z,14.13
2018-03-15T15:14:38.237Z,14.67
2018-03-15T15:17:06.036Z,15.03
2018-03-15T15:19:36.279Z,12.87
2018-03-15T15:22:05.517Z,16.20
2018-03-15T15:24:33.770Z,13.63
2018-03-15T15:27:04.043Z,12.87
2018-03-15T15:29:33.415Z,14.60
2018-03-15T15:32:02.968Z,13.00
2018-03-15T15:34:33.452Z,14.90
2018-03-15T15:37:04.716Z,17.40
2018-03-15T15:39:31.985Z,14.90
2018-03-15T15:42:01.155Z,14.60
2018-03-15T15:44:29.127Z,20.87
2018-03-15T15:46:59.245Z,11.80
2018-03-15T15:49:31.332Z,13.97
2018-03-15T15:52:00.618Z,19.30
2018-03-15T15:54:32.116Z,16.33
2018-03-15T15:57:00.175Z,18.90
2018-03-15T15:59:30.351Z,21.20
2018-03-15T16:02:02.746Z,20.57
2018-03-15T16:04:30.767Z,20.70
2018-03-15T16:07:00.122Z,16.67
2018-03-15T16:09:27.903Z,15.77
2018-03-15T16:11:59.035Z,19.10
2018-03-15T16:14:26.580Z,24.13
2018-03-15T16:16:54.659Z,17.57
2018-03-15T16:19:22.275Z,18.83
2018-03-15T16:21:50.354Z,21.03
2018-03-15T16:24:19.114Z,17.83
2018-03-15T16:26:51.276Z,16.53
2018-03-15T16:29:20.410Z,17.60
2018-03-15T16:31:49.469Z,20.50
2018-03-15T16:34:16.615Z,21.20
2018-03-15T16:36:46.699Z,18.77
2018-03-15T16:39:13.446Z,23.37
2018-03-15T16:41:39.881Z,19.20
2018-03-15T16:44:06.469Z,19.27
2018-03-15T16:46:33.015Z,20.20
2018-03-15T16:48:59.380Z,18.63
2018-03-15T16:51:27.068Z,21.27
2018-03-15T16:53:54.257Z,18.60
2018-03-15T16:56:22.549Z,23.70
2018-03-15T16:58:52.735Z,18.27
2018-03-15T17:01:21.287Z,21.40
2018-03-15T17:03:50.910Z,20.03
2018-03-15T17:06:20.721Z,34.27
2018-03-15T17:08:51.066Z,31.40
2018-03-15T17:11:20.759Z,15.97
2018-03-15T17:13:53.075Z,17.03
2018-03-15T17:16:20.256Z,19.87
2018-03-15T17:18:46.781Z,17.40
2018-03-15T17:21:13.212Z,21.60
2018-03-15T17:23:40.360Z,17.37
2018-03-15T17:26:07.106Z,19.00
2018-03-15T17:28:33.549Z,72.47
2018-03-15T17:30:59.963Z,74.07
2018-03-15T17:33:26.624Z,24.67
2018-03-15T17:35:54.992Z,21.73
2018-03-15T17:38:21.877Z,20.47
2018-03-15T17:40:49.526Z,20.43
2018-03-15T17:43:17.040Z,18.60
2018-03-15T17:45:44.453Z,15.80
2018-03-15T17:48:10.905Z,16.37
2018-03-15T17:50:37.348Z,23.80
2018-03-15T17:53:04.628Z,18.87
2018-03-15T17:55:31.144Z,21.73
2018-03-15T17:57:57.605Z,18.57
2018-03-15T18:00:25.490Z,23.83
2018-03-15T18:02:51.918Z,22.47
2018-03-15T18:05:19.852Z,17.70
2018-03-15T18:07:47.021Z,20.73
2018-03-15T18:10:13.584Z,19.03
2018-03-15T18:12:39.983Z,25.13
2018-03-15T18:15:06.431Z,19.87
2018-03-15T18:17:32.875Z,22.47
2018-03-15T18:19:59.365Z,22.80
2018-03-15T18:22:26.812Z,21.33
2018-03-15T18:24:53.686Z,21.70
2018-03-15T18:27:20.179Z,24.27
2018-03-15T18:29:46.615Z,27.00
2018-03-15T18:32:13.033Z,23.40
2018-03-15T18:34:39.440Z,21.37
2018-03-15T18:37:07.843Z,23.00
2018-03-15T18:39:37.913Z,21.63
2018-03-15T18:42:06.150Z,24.83
2018-03-15T18:44:32.560Z,27.33
2018-03-15T18:46:59.468Z,29.50
2018-03-15T18:49:26.075Z,24.43
2018-03-15T18:51:53.907Z,27.53
2018-03-15T18:54:20.617Z,31.50
2018-03-15T19:01:18.736Z,26.00
2018-03-15T19:03:45.831Z,24.03
2018-03-15T19:06:12.220Z,27.27
2018-03-15T19:08:38.838Z,26.77
2018-03-15T19:11:05.979Z,26.53
2018-03-15T19:13:32.368Z,22.53
2018-03-15T19:15:58.843Z,24.57
2018-03-15T19:18:25.182Z,29.87
2018-03-15T19:20:52.281Z,26.40
2018-03-15T19:23:32.361Z,32.00
2018-03-15T19:26:00.442Z,30.60
2018-03-15T19:28:29.577Z,26.57
2018-03-15T19:30:59.455Z,32.43
2018-03-15T19:33:26.924Z,36.10
2018-03-15T19:35:53.332Z,32.63
2018-03-15T19:38:19.714Z,29.93
2018-03-15T19:40:46.216Z,34.43
2018-03-15T19:43:13.357Z,30.13
2018-03-15T19:45:40.031Z,29.70
2018-03-15T19:48:06.393Z,26.60
2018-03-15T19:50:33.116Z,32.00
2018-03-15T19:52:59.639Z,26.63
2018-03-15T19:55:26.023Z,30.03
2018-03-15T19:57:52.450Z,23.60
2018-03-15T20:00:18.932Z,29.37
2018-03-15T20:02:46.057Z,25.63
2018-03-15T20:05:12.493Z,27.57
2018-03-15T20:07:39.006Z,24.23
2018-03-15T20:10:05.417Z,22.47
2018-03-15T20:12:31.802Z,27.53
2018-03-15T20:14:58.411Z,26.00
2018-03-15T20:17:24.785Z,30.73
2018-03-15T20:19:51.226Z,24.20
2018-03-15T20:22:23.738Z,33.43
2018-03-15T20:24:50.135Z,26.53
2018-03-15T20:27:23.483Z,23.97
2018-03-15T20:29:49.887Z,29.50
2018-03-15T20:35:16.934Z,25.73
2018-03-15T20:37:46.258Z,21.12
2018-03-15T20:40:21.629Z,25.97
2018-03-15T20:42:50.935Z,25.73
2018-03-15T20:45:26.033Z,24.93
2018-03-15T20:48:01.936Z,22.53
2018-03-15T20:50:33.073Z,19.03
2018-03-15T20:53:02.534Z,19.43
2018-03-15T20:55:31.985Z,27.97
2018-03-15T20:58:01.427Z,22.60
2018-03-15T21:00:30.747Z,20.50
2018-03-15T21:03:01.382Z,21.52
2018-03-15T21:05:30.729Z,20.70
2018-03-15T21:08:01.322Z,24.08
2018-03-15T21:10:30.690Z,20.70
2018-03-15T21:13:00.688Z,23.83
2018-03-15T21:15:31.532Z,27.45
2018-03-15T21:18:00.892Z,23.23
2018-03-15T21:20:32.006Z,23.30
2018-03-15T21:23:01.440Z,20.33
2018-03-15T21:25:30.798Z,20.77
2018-03-15T21:28:01.932Z,20.70
2018-03-15T21:30:31.226Z,18.93
2018-03-15T21:33:01.848Z,20.92
2018-03-15T21:35:31.163Z,18.80
2018-03-15T21:38:03.639Z,15.27
2018-03-15T21:40:33.039Z,20.10
2018-03-15T21:43:02.488Z,18.77
2018-03-15T21:45:32.037Z,16.17
2018-03-15T21:48:01.372Z,18.20
2018-03-15T21:50:31.226Z,21.10
2018-03-15T21:53:01.420Z,14.27
2018-03-15T21:55:31.751Z,14.24
2018-03-15T21:58:01.912Z,18.33
2018-03-15T22:00:32.833Z,19.58
2018-03-15T22:03:02.461Z,15.20
2018-03-15T22:05:32.147Z,15.00
2018-03-15T22:08:02.228Z,14.55
2018-03-15T22:10:32.948Z,17.23
2018-03-15T22:13:02.777Z,13.93
2018-03-15T22:15:32.429Z,13.00
2018-03-15T22:18:02.489Z,10.52
2018-03-15T22:20:32.611Z,11.77
2018-03-15T22:23:03.065Z,12.47
2018-03-15T22:25:33.054Z,11.02
2018-03-15T22:28:04.304Z,10.40
2018-03-15T22:30:34.439Z,11.77
2018-03-15T22:33:03.959Z,14.40
2018-03-15T22:35:33.303Z,14.43
2018-03-15T22:38:04.139Z,9.73
2018-03-15T22:40:34.213Z,9.40
2018-03-15T22:43:04.788Z,9.63
2018-03-15T22:45:35.253Z,9.43
2018-03-15T22:48:06.283Z,9.43
2018-03-15T22:50:36.527Z,11.23
2018-03-15T22:53:05.844Z,8.55
2018-03-15T22:55:35.209Z,9.70
2018-03-15T22:58:05.101Z,10.87
2018-03-15T23:00:35.256Z,9.48
2018-03-15T23:03:05.959Z,10.13
2018-03-15T23:05:35.379Z,8.95
2018-03-15T23:08:06.108Z,9.98
2018-03-15T23:10:35.664Z,15.17
2018-03-15T23:13:05.867Z,13.40
2018-03-15T23:15:36.719Z,10.40
2018-03-15T23:18:07.082Z,11.87
2018-03-15T23:20:37.977Z,6.97
2018-03-15T23:23:07.720Z,10.15
2018-03-15T23:25:39.928Z,7.20
2018-03-15T23:28:11.067Z,9.43
2018-03-15T23:30:41.009Z,7.53
2018-03-15T23:33:11.883Z,8.13
2018-03-15T23:35:41.828Z,9.73
2018-03-15T23:38:14.163Z,6.67
2018-03-15T23:40:45.853Z,10.27
2018-03-15T23:43:17.934Z,9.77
2018-03-15T23:45:49.930Z,8.17
2018-03-15T23:48:20.631Z,8.37
2018-03-15T23:50:55.366Z,8.30
2018-03-15T23:53:26.220Z,9.83
2018-03-15T23:55:57.409Z,7.60
2018-03-15T23:58:26.716Z,8.63
